sensor_id;sensor_type;location;lat;lon;timestamp;P1;durP1;ratioP1;P2;durP2;ratioP2
56667;SDS011;42542;48.360;10.958;2023-12-07T00:02:58;16.00;;;5.70;;
56667;SDS011;42542;48.360;10.958;2023-12-07T00:06:01;15.25;;;5.63;;
56667;SDS011;42542;48.360;10.958;2023-12-07T00:09:03;16.15;;;5.13;;
56667;SDS011;42542;48.360;10.958;2023-12-07T00:12:06;14.10;;;5.47;;
56667;SDS011;42542;48.360;10.958;2023-12-07T00:15:07;14.27;;;5.35;;
56667;SDS011;42542;48.360;10.958;2023-12-07T00:18:10;15.02;;;5.53;;
56667;SDS011;42542;48.360;10.958;2023-12-07T00:21:12;14.30;;;5.88;;
56667;SDS011;42542;48.360;10.958;2023-12-07T00:24:14;16.50;;;5.43;;
56667;SDS011;42542;48.360;10.958;2023-12-07T00:27:16;15.75;;;5.30;;
56667;SDS011;42542;48.360;10.958;2023-12-07T00:30:18;14.32;;;5.28;;
56667;SDS011;42542;48.360;10.958;2023-12-07T00:33:20;15.30;;;5.47;;
56667;SDS011;42542;48.360;10.958;2023-12-07T00:36:23;15.98;;;5.82;;
56667;SDS011;42542;48.360;10.958;2023-12-07T00:39:24;14.50;;;5.75;;
56667;SDS011;42542;48.360;10.958;2023-12-07T00:42:27;14.60;;;5.17;;
56667;SDS011;42542;48.360;10.958;2023-12-07T00:45:29;15.63;;;5.22;;
56667;SDS011;42542;48.360;10.958;2023-12-07T00:48:31;15.10;;;5.50;;
56667;SDS011;42542;48.360;10.958;2023-12-07T00:51:32;17.05;;;5.75;;
56667;SDS011;42542;48.360;10.958;2023-12-07T00:54:35;16.13;;;5.18;;
56667;SDS011;42542;48.360;10.958;2023-12-07T00:57:37;17.08;;;5.80;;
56667;SDS011;42542;48.360;10.958;2023-12-07T01:00:39;13.85;;;5.50;;
56667;SDS011;42542;48.360;10.958;2023-12-07T01:03:40;13.97;;;5.47;;
56667;SDS011;42542;48.360;10.958;2023-12-07T01:06:43;16.27;;;5.80;;
56667;SDS011;42542;48.360;10.958;2023-12-07T01:09:45;14.95;;;5.22;;
56667;SDS011;42542;48.360;10.958;2023-12-07T01:12:47;13.03;;;5.17;;
56667;SDS011;42542;48.360;10.958;2023-12-07T01:15:49;16.05;;;5.55;;
56667;SDS011;42542;48.360;10.958;2023-12-07T01:18:52;15.65;;;5.60;;
56667;SDS011;42542;48.360;10.958;2023-12-07T01:21:54;17.13;;;5.72;;
56667;SDS011;42542;48.360;10.958;2023-12-07T01:24:57;15.32;;;5.60;;
56667;SDS011;42542;48.360;10.958;2023-12-07T01:27:58;14.75;;;5.78;;
56667;SDS011;42542;48.360;10.958;2023-12-07T01:31:00;14.45;;;5.57;;
56667;SDS011;42542;48.360;10.958;2023-12-07T01:34:02;13.07;;;5.57;;
56667;SDS011;42542;48.360;10.958;2023-12-07T01:37:05;18.90;;;6.10;;
56667;SDS011;42542;48.360;10.958;2023-12-07T01:40:06;13.90;;;4.95;;
56667;SDS011;42542;48.360;10.958;2023-12-07T01:43:13;13.10;;;5.67;;
56667;SDS011;42542;48.360;10.958;2023-12-07T01:46:14;16.23;;;5.82;;
56667;SDS011;42542;48.360;10.958;2023-12-07T01:49:18;14.73;;;5.13;;
56667;SDS011;42542;48.360;10.958;2023-12-07T01:52:20;17.73;;;5.78;;
56667;SDS011;42542;48.360;10.958;2023-12-07T01:55:26;13.98;;;5.63;;
56667;SDS011;42542;48.360;10.958;2023-12-07T01:58:30;16.15;;;5.45;;
56667;SDS011;42542;48.360;10.958;2023-12-07T02:01:33;14.38;;;5.28;;
56667;SDS011;42542;48.360;10.958;2023-12-07T02:04:35;17.67;;;5.63;;
56667;SDS011;42542;48.360;10.958;2023-12-07T02:07:37;15.93;;;5.78;;
56667;SDS011;42542;48.360;10.958;2023-12-07T02:10:42;17.05;;;6.47;;
56667;SDS011;42542;48.360;10.958;2023-12-07T02:13:44;14.27;;;5.33;;
56667;SDS011;42542;48.360;10.958;2023-12-07T02:16:47;15.50;;;5.57;;
56667;SDS011;42542;48.360;10.958;2023-12-07T02:20:12;13.63;;;5.35;;
56667;SDS011;42542;48.360;10.958;2023-12-07T02:23:20;14.98;;;5.32;;
56667;SDS011;42542;48.360;10.958;2023-12-07T02:26:42;16.27;;;6.18;;
56667;SDS011;42542;48.360;10.958;2023-12-07T02:29:44;14.98;;;5.65;;
56667;SDS011;42542;48.360;10.958;2023-12-07T02:32:45;13.63;;;5.60;;
56667;SDS011;42542;48.360;10.958;2023-12-07T02:35:48;16.90;;;5.83;;
56667;SDS011;42542;48.360;10.958;2023-12-07T02:38:53;16.20;;;5.63;;
56667;SDS011;42542;48.360;10.958;2023-12-07T02:41:59;14.90;;;6.10;;
56667;SDS011;42542;48.360;10.958;2023-12-07T02:45:02;15.47;;;5.70;;
56667;SDS011;42542;48.360;10.958;2023-12-07T02:48:05;13.52;;;5.32;;
56667;SDS011;42542;48.360;10.958;2023-12-07T02:51:06;17.88;;;6.05;;
56667;SDS011;42542;48.360;10.958;2023-12-07T02:54:09;16.52;;;6.28;;
56667;SDS011;42542;48.360;10.958;2023-12-07T02:57:10;20.02;;;6.35;;
56667;SDS011;42542;48.360;10.958;2023-12-07T03:00:13;24.45;;;7.07;;
56667;SDS011;42542;48.360;10.958;2023-12-07T03:03:15;16.02;;;6.13;;
56667;SDS011;42542;48.360;10.958;2023-12-07T03:06:17;16.30;;;5.60;;
56667;SDS011;42542;48.360;10.958;2023-12-07T03:09:21;16.88;;;5.90;;
56667;SDS011;42542;48.360;10.958;2023-12-07T03:12:23;15.57;;;5.78;;
56667;SDS011;42542;48.360;10.958;2023-12-07T03:15:25;14.30;;;5.13;;
56667;SDS011;42542;48.360;10.958;2023-12-07T03:18:27;18.98;;;6.38;;
56667;SDS011;42542;48.360;10.958;2023-12-07T03:21:29;17.42;;;5.70;;
56667;SDS011;42542;48.360;10.958;2023-12-07T03:24:31;17.75;;;6.35;;
56667;SDS011;42542;48.360;10.958;2023-12-07T03:27:32;15.10;;;5.15;;
56667;SDS011;42542;48.360;10.958;2023-12-07T03:30:34;16.00;;;5.53;;
56667;SDS011;42542;48.360;10.958;2023-12-07T03:33:36;16.70;;;5.47;;
56667;SDS011;42542;48.360;10.958;2023-12-07T03:36:39;13.67;;;4.93;;
56667;SDS011;42542;48.360;10.958;2023-12-07T03:39:42;11.10;;;4.40;;
56667;SDS011;42542;48.360;10.958;2023-12-07T03:42:44;14.45;;;5.22;;
56667;SDS011;42542;48.360;10.958;2023-12-07T03:45:57;12.17;;;4.53;;
56667;SDS011;42542;48.360;10.958;2023-12-07T03:48:59;12.00;;;4.72;;
56667;SDS011;42542;48.360;10.958;2023-12-07T03:52:04;15.02;;;5.45;;
56667;SDS011;42542;48.360;10.958;2023-12-07T03:55:07;15.45;;;5.25;;
56667;SDS011;42542;48.360;10.958;2023-12-07T03:58:09;13.02;;;5.45;;
56667;SDS011;42542;48.360;10.958;2023-12-07T04:01:11;17.10;;;5.65;;
56667;SDS011;42542;48.360;10.958;2023-12-07T04:04:13;27.73;;;7.68;;
56667;SDS011;42542;48.360;10.958;2023-12-07T04:07:16;26.90;;;7.17;;
56667;SDS011;42542;48.360;10.958;2023-12-07T04:10:18;21.85;;;7.82;;
56667;SDS011;42542;48.360;10.958;2023-12-07T04:13:21;20.00;;;6.97;;
56667;SDS011;42542;48.360;10.958;2023-12-07T04:16:23;14.97;;;5.50;;
56667;SDS011;42542;48.360;10.958;2023-12-07T04:19:25;16.75;;;5.07;;
56667;SDS011;42542;48.360;10.958;2023-12-07T04:22:27;15.98;;;5.43;;
56667;SDS011;42542;48.360;10.958;2023-12-07T04:25:29;13.23;;;5.25;;
56667;SDS011;42542;48.360;10.958;2023-12-07T04:28:31;21.80;;;7.40;;
56667;SDS011;42542;48.360;10.958;2023-12-07T04:31:33;22.60;;;7.57;;
56667;SDS011;42542;48.360;10.958;2023-12-07T04:34:37;25.10;;;8.00;;
56667;SDS011;42542;48.360;10.958;2023-12-07T04:37:39;22.07;;;6.97;;
56667;SDS011;42542;48.360;10.958;2023-12-07T04:40:41;17.13;;;6.43;;
56667;SDS011;42542;48.360;10.958;2023-12-07T04:43:43;15.65;;;5.63;;
56667;SDS011;42542;48.360;10.958;2023-12-07T04:46:45;16.00;;;6.47;;
56667;SDS011;42542;48.360;10.958;2023-12-07T04:49:47;24.80;;;8.57;;
56667;SDS011;42542;48.360;10.958;2023-12-07T04:52:49;19.00;;;7.15;;
56667;SDS011;42542;48.360;10.958;2023-12-07T04:55:52;23.77;;;6.80;;
56667;SDS011;42542;48.360;10.958;2023-12-07T04:58:53;18.00;;;6.10;;
56667;SDS011;42542;48.360;10.958;2023-12-07T05:01:55;17.55;;;6.10;;
56667;SDS011;42542;48.360;10.958;2023-12-07T05:04:57;22.65;;;7.65;;
56667;SDS011;42542;48.360;10.958;2023-12-07T05:08:00;18.60;;;6.50;;
56667;SDS011;42542;48.360;10.958;2023-12-07T05:11:01;17.33;;;6.85;;
56667;SDS011;42542;48.360;10.958;2023-12-07T05:14:03;17.17;;;5.22;;
56667;SDS011;42542;48.360;10.958;2023-12-07T05:17:05;15.00;;;5.23;;
56667;SDS011;42542;48.360;10.958;2023-12-07T05:20:06;17.85;;;5.82;;
56667;SDS011;42542;48.360;10.958;2023-12-07T05:23:08;11.77;;;4.90;;
56667;SDS011;42542;48.360;10.958;2023-12-07T05:26:12;16.80;;;5.78;;
56667;SDS011;42542;48.360;10.958;2023-12-07T05:29:13;15.55;;;5.72;;
56667;SDS011;42542;48.360;10.958;2023-12-07T05:32:15;13.82;;;5.15;;
56667;SDS011;42542;48.360;10.958;2023-12-07T05:35:17;14.73;;;5.65;;
56667;SDS011;42542;48.360;10.958;2023-12-07T05:38:20;17.70;;;5.57;;
56667;SDS011;42542;48.360;10.958;2023-12-07T05:41:21;16.13;;;5.40;;
56667;SDS011;42542;48.360;10.958;2023-12-07T05:44:23;15.63;;;5.68;;
56667;SDS011;42542;48.360;10.958;2023-12-07T05:47:25;13.67;;;5.10;;
56667;SDS011;42542;48.360;10.958;2023-12-07T05:50:28;15.02;;;5.07;;
56667;SDS011;42542;48.360;10.958;2023-12-07T05:53:30;14.52;;;5.55;;
56667;SDS011;42542;48.360;10.958;2023-12-07T05:56:33;14.30;;;5.55;;
56667;SDS011;42542;48.360;10.958;2023-12-07T05:59:39;15.05;;;4.68;;
56667;SDS011;42542;48.360;10.958;2023-12-07T06:02:41;12.57;;;4.80;;
56667;SDS011;42542;48.360;10.958;2023-12-07T06:05:42;16.88;;;6.20;;
56667;SDS011;42542;48.360;10.958;2023-12-07T06:08:46;15.50;;;6.47;;
56667;SDS011;42542;48.360;10.958;2023-12-07T06:11:49;15.13;;;5.85;;
56667;SDS011;42542;48.360;10.958;2023-12-07T06:14:50;14.48;;;5.32;;
56667;SDS011;42542;48.360;10.958;2023-12-07T06:17:53;15.27;;;5.67;;
56667;SDS011;42542;48.360;10.958;2023-12-07T06:20:56;19.15;;;6.03;;
56667;SDS011;42542;48.360;10.958;2023-12-07T06:23:58;15.18;;;5.75;;
56667;SDS011;42542;48.360;10.958;2023-12-07T06:27:01;17.73;;;6.53;;
56667;SDS011;42542;48.360;10.958;2023-12-07T06:30:04;16.75;;;6.22;;
56667;SDS011;42542;48.360;10.958;2023-12-07T06:33:08;19.95;;;6.15;;
56667;SDS011;42542;48.360;10.958;2023-12-07T06:36:10;17.30;;;6.20;;
56667;SDS011;42542;48.360;10.958;2023-12-07T06:39:13;16.97;;;6.80;;
56667;SDS011;42542;48.360;10.958;2023-12-07T06:42:15;30.02;;;9.85;;
56667;SDS011;42542;48.360;10.958;2023-12-07T06:45:19;19.98;;;7.05;;
56667;SDS011;42542;48.360;10.958;2023-12-07T06:48:20;18.17;;;6.77;;
56667;SDS011;42542;48.360;10.958;2023-12-07T06:51:22;19.35;;;7.22;;
56667;SDS011;42542;48.360;10.958;2023-12-07T06:54:24;17.05;;;6.43;;
56667;SDS011;42542;48.360;10.958;2023-12-07T06:57:26;18.23;;;7.32;;
56667;SDS011;42542;48.360;10.958;2023-12-07T07:00:31;23.55;;;7.43;;
56667;SDS011;42542;48.360;10.958;2023-12-07T07:03:34;15.80;;;6.75;;
56667;SDS011;42542;48.360;10.958;2023-12-07T07:06:38;19.95;;;7.45;;
56667;SDS011;42542;48.360;10.958;2023-12-07T07:09:41;16.63;;;6.17;;
56667;SDS011;42542;48.360;10.958;2023-12-07T07:12:43;16.42;;;6.00;;
56667;SDS011;42542;48.360;10.958;2023-12-07T07:15:45;19.08;;;6.80;;
56667;SDS011;42542;48.360;10.958;2023-12-07T07:18:47;21.80;;;8.30;;
56667;SDS011;42542;48.360;10.958;2023-12-07T07:21:48;19.33;;;7.28;;
56667;SDS011;42542;48.360;10.958;2023-12-07T07:24:50;17.00;;;6.82;;
56667;SDS011;42542;48.360;10.958;2023-12-07T07:27:54;17.70;;;6.50;;
56667;SDS011;42542;48.360;10.958;2023-12-07T07:30:56;16.77;;;6.50;;
56667;SDS011;42542;48.360;10.958;2023-12-07T07:33:59;18.05;;;6.68;;
56667;SDS011;42542;48.360;10.958;2023-12-07T07:37:02;17.65;;;6.82;;
56667;SDS011;42542;48.360;10.958;2023-12-07T07:40:04;17.13;;;6.47;;
56667;SDS011;42542;48.360;10.958;2023-12-07T07:43:08;17.73;;;6.93;;
56667;SDS011;42542;48.360;10.958;2023-12-07T07:46:10;19.35;;;6.85;;
56667;SDS011;42542;48.360;10.958;2023-12-07T07:49:13;22.20;;;7.17;;
56667;SDS011;42542;48.360;10.958;2023-12-07T07:52:16;22.38;;;8.68;;
56667;SDS011;42542;48.360;10.958;2023-12-07T07:55:17;23.33;;;8.70;;
56667;SDS011;42542;48.360;10.958;2023-12-07T07:58:20;23.23;;;8.52;;
56667;SDS011;42542;48.360;10.958;2023-12-07T08:01:21;24.60;;;9.15;;
56667;SDS011;42542;48.360;10.958;2023-12-07T08:04:24;25.35;;;8.43;;
56667;SDS011;42542;48.360;10.958;2023-12-07T08:07:26;21.77;;;8.57;;
56667;SDS011;42542;48.360;10.958;2023-12-07T08:10:29;19.20;;;8.17;;
56667;SDS011;42542;48.360;10.958;2023-12-07T08:13:31;20.92;;;7.93;;
56667;SDS011;42542;48.360;10.958;2023-12-07T08:16:33;23.42;;;9.15;;
56667;SDS011;42542;48.360;10.958;2023-12-07T08:19:35;21.57;;;8.63;;
56667;SDS011;42542;48.360;10.958;2023-12-07T08:22:38;17.77;;;7.80;;
56667;SDS011;42542;48.360;10.958;2023-12-07T08:25:41;20.48;;;8.30;;
56667;SDS011;42542;48.360;10.958;2023-12-07T08:28:44;15.63;;;6.13;;
56667;SDS011;42542;48.360;10.958;2023-12-07T08:31:46;17.02;;;6.13;;
56667;SDS011;42542;48.360;10.958;2023-12-07T08:34:48;15.25;;;6.10;;
56667;SDS011;42542;48.360;10.958;2023-12-07T08:37:51;16.85;;;6.22;;
56667;SDS011;42542;48.360;10.958;2023-12-07T08:40:53;15.00;;;6.20;;
56667;SDS011;42542;48.360;10.958;2023-12-07T08:43:56;16.35;;;6.50;;
56667;SDS011;42542;48.360;10.958;2023-12-07T08:46:57;17.08;;;5.78;;
56667;SDS011;42542;48.360;10.958;2023-12-07T08:50:00;22.97;;;6.67;;
56667;SDS011;42542;48.360;10.958;2023-12-07T08:53:01;18.02;;;6.13;;
56667;SDS011;42542;48.360;10.958;2023-12-07T08:56:06;16.52;;;5.65;;
56667;SDS011;42542;48.360;10.958;2023-12-07T08:59:08;18.38;;;6.40;;
56667;SDS011;42542;48.360;10.958;2023-12-07T09:02:09;15.13;;;5.88;;
56667;SDS011;42542;48.360;10.958;2023-12-07T09:05:12;15.13;;;5.40;;
56667;SDS011;42542;48.360;10.958;2023-12-07T09:08:14;13.77;;;5.47;;
56667;SDS011;42542;48.360;10.958;2023-12-07T09:11:16;14.90;;;5.83;;
56667;SDS011;42542;48.360;10.958;2023-12-07T09:14:18;17.08;;;6.47;;
56667;SDS011;42542;48.360;10.958;2023-12-07T09:17:20;17.48;;;6.20;;
56667;SDS011;42542;48.360;10.958;2023-12-07T09:20:22;16.93;;;6.27;;
56667;SDS011;42542;48.360;10.958;2023-12-07T09:23:24;19.73;;;7.70;;
56667;SDS011;42542;48.360;10.958;2023-12-07T09:26:26;20.83;;;7.57;;
56667;SDS011;42542;48.360;10.958;2023-12-07T09:29:29;20.25;;;7.35;;
56667;SDS011;42542;48.360;10.958;2023-12-07T09:32:30;19.00;;;6.75;;
56667;SDS011;42542;48.360;10.958;2023-12-07T09:35:38;20.92;;;8.00;;
56667;SDS011;42542;48.360;10.958;2023-12-07T09:38:40;19.85;;;7.55;;
56667;SDS011;42542;48.360;10.958;2023-12-07T09:41:42;19.67;;;7.77;;
56667;SDS011;42542;48.360;10.958;2023-12-07T09:44:45;20.13;;;7.50;;
56667;SDS011;42542;48.360;10.958;2023-12-07T09:47:49;18.98;;;7.60;;
56667;SDS011;42542;48.360;10.958;2023-12-07T09:50:52;20.43;;;7.70;;
56667;SDS011;42542;48.360;10.958;2023-12-07T09:53:57;20.13;;;7.35;;
56667;SDS011;42542;48.360;10.958;2023-12-07T09:57:01;21.00;;;8.32;;
56667;SDS011;42542;48.360;10.958;2023-12-07T10:00:03;19.10;;;7.53;;
56667;SDS011;42542;48.360;10.958;2023-12-07T10:03:07;19.20;;;7.82;;
56667;SDS011;42542;48.360;10.958;2023-12-07T10:06:10;20.15;;;7.55;;
56667;SDS011;42542;48.360;10.958;2023-12-07T10:09:11;17.45;;;7.00;;
56667;SDS011;42542;48.360;10.958;2023-12-07T10:12:24;19.20;;;7.13;;
56667;SDS011;42542;48.360;10.958;2023-12-07T10:15:26;17.30;;;7.60;;
56667;SDS011;42542;48.360;10.958;2023-12-07T10:18:29;19.83;;;7.60;;
56667;SDS011;42542;48.360;10.958;2023-12-07T10:21:32;20.60;;;7.60;;
56667;SDS011;42542;48.360;10.958;2023-12-07T10:24:34;18.88;;;7.22;;
56667;SDS011;42542;48.360;10.958;2023-12-07T10:27:36;18.30;;;7.38;;
56667;SDS011;42542;48.360;10.958;2023-12-07T10:30:40;17.92;;;7.28;;
56667;SDS011;42542;48.360;10.958;2023-12-07T10:33:48;17.50;;;7.07;;
56667;SDS011;42542;48.360;10.958;2023-12-07T10:36:51;19.00;;;6.95;;
56667;SDS011;42542;48.360;10.958;2023-12-07T10:39:54;17.88;;;7.32;;
56667;SDS011;42542;48.360;10.958;2023-12-07T10:42:57;18.60;;;7.07;;
56667;SDS011;42542;48.360;10.958;2023-12-07T10:46:05;16.58;;;6.85;;
56667;SDS011;42542;48.360;10.958;2023-12-07T10:49:15;15.57;;;6.15;;
56667;SDS011;42542;48.360;10.958;2023-12-07T10:52:32;15.10;;;6.63;;
56667;SDS011;42542;48.360;10.958;2023-12-07T10:55:39;15.63;;;6.32;;
56667;SDS011;42542;48.360;10.958;2023-12-07T10:58:46;15.05;;;6.22;;
56667;SDS011;42542;48.360;10.958;2023-12-07T11:01:50;17.15;;;6.28;;
56667;SDS011;42542;48.360;10.958;2023-12-07T11:04:53;17.90;;;7.00;;
56667;SDS011;42542;48.360;10.958;2023-12-07T11:11:22;15.52;;;6.35;;
56667;SDS011;42542;48.360;10.958;2023-12-07T11:14:35;15.70;;;5.77;;
56667;SDS011;42542;48.360;10.958;2023-12-07T11:18:01;17.95;;;6.30;;
56667;SDS011;42542;48.360;10.958;2023-12-07T11:21:00;15.00;;;6.28;;
56667;SDS011;42542;48.360;10.958;2023-12-07T11:24:02;15.63;;;5.73;;
56667;SDS011;42542;48.360;10.958;2023-12-07T11:27:05;16.15;;;5.25;;
56667;SDS011;42542;48.360;10.958;2023-12-07T11:30:07;15.93;;;6.05;;
56667;SDS011;42542;48.360;10.958;2023-12-07T11:33:09;12.40;;;5.13;;
56667;SDS011;42542;48.360;10.958;2023-12-07T11:36:12;14.00;;;5.32;;
56667;SDS011;42542;48.360;10.958;2023-12-07T11:42:26;13.40;;;4.40;;
56667;SDS011;42542;48.360;10.958;2023-12-07T11:45:38;14.43;;;5.40;;
56667;SDS011;42542;48.360;10.958;2023-12-07T11:48:45;14.23;;;4.43;;
56667;SDS011;42542;48.360;10.958;2023-12-07T11:51:48;12.98;;;4.70;;
56667;SDS011;42542;48.360;10.958;2023-12-07T11:54:50;12.67;;;4.87;;
56667;SDS011;42542;48.360;10.958;2023-12-07T11:57:53;11.13;;;4.18;;
56667;SDS011;42542;48.360;10.958;2023-12-07T12:00:55;11.75;;;4.28;;
56667;SDS011;42542;48.360;10.958;2023-12-07T12:03:59;10.98;;;3.83;;
56667;SDS011;42542;48.360;10.958;2023-12-07T12:07:03;11.27;;;4.32;;
56667;SDS011;42542;48.360;10.958;2023-12-07T12:10:05;11.27;;;4.20;;
56667;SDS011;42542;48.360;10.958;2023-12-07T12:13:07;12.05;;;4.05;;
56667;SDS011;42542;48.360;10.958;2023-12-07T12:16:10;11.07;;;4.07;;
56667;SDS011;42542;48.360;10.958;2023-12-07T12:19:12;12.75;;;4.22;;
56667;SDS011;42542;48.360;10.958;2023-12-07T12:22:32;13.07;;;4.88;;
56667;SDS011;42542;48.360;10.958;2023-12-07T12:25:34;11.33;;;4.13;;
56667;SDS011;42542;48.360;10.958;2023-12-07T12:28:37;11.52;;;4.10;;
56667;SDS011;42542;48.360;10.958;2023-12-07T12:31:44;11.65;;;4.32;;
56667;SDS011;42542;48.360;10.958;2023-12-07T12:34:46;10.82;;;4.20;;
56667;SDS011;42542;48.360;10.958;2023-12-07T12:37:52;10.55;;;4.20;;
56667;SDS011;42542;48.360;10.958;2023-12-07T12:40:56;12.77;;;4.45;;
56667;SDS011;42542;48.360;10.958;2023-12-07T12:43:58;13.90;;;4.60;;
56667;SDS011;42542;48.360;10.958;2023-12-07T12:47:01;12.07;;;4.43;;
56667;SDS011;42542;48.360;10.958;2023-12-07T12:50:02;14.80;;;4.72;;
56667;SDS011;42542;48.360;10.958;2023-12-07T12:53:07;9.27;;;3.42;;
56667;SDS011;42542;48.360;10.958;2023-12-07T12:56:11;9.87;;;3.43;;
56667;SDS011;42542;48.360;10.958;2023-12-07T12:59:14;9.43;;;2.85;;
56667;SDS011;42542;48.360;10.958;2023-12-07T13:02:15;8.95;;;3.28;;
56667;SDS011;42542;48.360;10.958;2023-12-07T13:05:20;9.30;;;3.53;;
56667;SDS011;42542;48.360;10.958;2023-12-07T13:08:21;9.13;;;3.40;;
56667;SDS011;42542;48.360;10.958;2023-12-07T13:11:23;8.75;;;3.60;;
56667;SDS011;42542;48.360;10.958;2023-12-07T13:14:25;10.95;;;3.88;;
56667;SDS011;42542;48.360;10.958;2023-12-07T13:17:28;8.70;;;2.80;;
56667;SDS011;42542;48.360;10.958;2023-12-07T13:20:31;8.95;;;2.75;;
56667;SDS011;42542;48.360;10.958;2023-12-07T13:23:50;8.48;;;3.03;;
56667;SDS011;42542;48.360;10.958;2023-12-07T13:26:52;10.90;;;3.67;;
56667;SDS011;42542;48.360;10.958;2023-12-07T13:29:54;9.73;;;2.90;;
56667;SDS011;42542;48.360;10.958;2023-12-07T13:32:57;7.75;;;2.63;;
56667;SDS011;42542;48.360;10.958;2023-12-07T13:36:00;8.77;;;3.05;;
56667;SDS011;42542;48.360;10.958;2023-12-07T13:39:07;10.07;;;3.00;;
56667;SDS011;42542;48.360;10.958;2023-12-07T13:42:17;7.43;;;2.55;;
56667;SDS011;42542;48.360;10.958;2023-12-07T13:45:18;9.43;;;2.42;;
56667;SDS011;42542;48.360;10.958;2023-12-07T13:48:21;7.40;;;2.40;;
56667;SDS011;42542;48.360;10.958;2023-12-07T13:51:22;7.82;;;2.42;;
56667;SDS011;42542;48.360;10.958;2023-12-07T13:54:25;8.02;;;2.65;;
56667;SDS011;42542;48.360;10.958;2023-12-07T13:57:46;8.47;;;2.60;;
56667;SDS011;42542;48.360;10.958;2023-12-07T14:00:48;16.02;;;5.85;;
56667;SDS011;42542;48.360;10.958;2023-12-07T14:03:50;13.02;;;4.80;;
56667;SDS011;42542;48.360;10.958;2023-12-07T14:06:52;12.02;;;4.45;;
56667;SDS011;42542;48.360;10.958;2023-12-07T14:09:54;10.18;;;3.85;;
56667;SDS011;42542;48.360;10.958;2023-12-07T14:12:59;10.60;;;3.72;;
56667;SDS011;42542;48.360;10.958;2023-12-07T14:16:02;10.43;;;3.45;;
56667;SDS011;42542;48.360;10.958;2023-12-07T14:19:18;12.27;;;4.73;;
56667;SDS011;42542;48.360;10.958;2023-12-07T14:22:21;11.98;;;4.25;;
56667;SDS011;42542;48.360;10.958;2023-12-07T14:25:23;11.63;;;3.60;;
56667;SDS011;42542;48.360;10.958;2023-12-07T14:28:25;10.17;;;4.60;;
56667;SDS011;42542;48.360;10.958;2023-12-07T14:31:30;10.48;;;4.13;;
56667;SDS011;42542;48.360;10.958;2023-12-07T14:34:35;10.75;;;4.30;;
56667;SDS011;42542;48.360;10.958;2023-12-07T14:37:38;11.68;;;4.07;;
56667;SDS011;42542;48.360;10.958;2023-12-07T14:40:40;12.38;;;4.25;;
56667;SDS011;42542;48.360;10.958;2023-12-07T14:43:42;11.63;;;4.50;;
56667;SDS011;42542;48.360;10.958;2023-12-07T14:46:44;12.20;;;4.57;;
56667;SDS011;42542;48.360;10.958;2023-12-07T14:49:47;14.00;;;5.20;;
56667;SDS011;42542;48.360;10.958;2023-12-07T14:52:48;12.65;;;4.97;;
56667;SDS011;42542;48.360;10.958;2023-12-07T14:55:51;11.98;;;4.82;;
56667;SDS011;42542;48.360;10.958;2023-12-07T14:58:53;12.27;;;3.83;;
56667;SDS011;42542;48.360;10.958;2023-12-07T15:01:55;11.23;;;4.03;;
56667;SDS011;42542;48.360;10.958;2023-12-07T15:04:57;9.48;;;3.63;;
56667;SDS011;42542;48.360;10.958;2023-12-07T15:07:59;11.10;;;3.95;;
56667;SDS011;42542;48.360;10.958;2023-12-07T15:11:01;13.80;;;5.15;;
56667;SDS011;42542;48.360;10.958;2023-12-07T15:14:05;14.90;;;5.30;;
56667;SDS011;42542;48.360;10.958;2023-12-07T15:17:07;13.52;;;5.03;;
56667;SDS011;42542;48.360;10.958;2023-12-07T15:20:11;13.40;;;5.70;;
56667;SDS011;42542;48.360;10.958;2023-12-07T15:23:12;17.42;;;6.55;;
56667;SDS011;42542;48.360;10.958;2023-12-07T15:26:14;17.42;;;6.53;;
56667;SDS011;42542;48.360;10.958;2023-12-07T15:29:16;18.30;;;7.10;;
56667;SDS011;42542;48.360;10.958;2023-12-07T15:32:18;16.15;;;6.25;;
56667;SDS011;42542;48.360;10.958;2023-12-07T15:35:20;20.70;;;7.68;;
56667;SDS011;42542;48.360;10.958;2023-12-07T15:38:22;25.77;;;10.18;;
56667;SDS011;42542;48.360;10.958;2023-12-07T15:41:24;28.77;;;12.52;;
56667;SDS011;42542;48.360;10.958;2023-12-07T15:44:26;22.55;;;10.05;;
56667;SDS011;42542;48.360;10.958;2023-12-07T15:47:31;28.83;;;12.38;;
56667;SDS011;42542;48.360;10.958;2023-12-07T15:50:34;24.47;;;10.83;;
56667;SDS011;42542;48.360;10.958;2023-12-07T15:53:36;21.10;;;9.77;;
56667;SDS011;42542;48.360;10.958;2023-12-07T15:56:39;24.63;;;11.13;;
56667;SDS011;42542;48.360;10.958;2023-12-07T15:59:42;27.33;;;12.87;;
56667;SDS011;42542;48.360;10.958;2023-12-07T16:02:44;23.70;;;9.68;;
56667;SDS011;42542;48.360;10.958;2023-12-07T16:05:46;24.80;;;10.57;;
56667;SDS011;42542;48.360;10.958;2023-12-07T16:08:49;20.40;;;9.40;;
56667;SDS011;42542;48.360;10.958;2023-12-07T16:11:51;22.88;;;9.52;;
56667;SDS011;42542;48.360;10.958;2023-12-07T16:14:53;25.23;;;10.10;;
56667;SDS011;42542;48.360;10.958;2023-12-07T16:17:57;24.27;;;10.88;;
56667;SDS011;42542;48.360;10.958;2023-12-07T16:20:59;23.57;;;9.87;;
56667;SDS011;42542;48.360;10.958;2023-12-07T16:24:01;25.80;;;11.27;;
56667;SDS011;42542;48.360;10.958;2023-12-07T16:27:03;32.15;;;12.60;;
56667;SDS011;42542;48.360;10.958;2023-12-07T16:30:09;28.07;;;11.20;;
56667;SDS011;42542;48.360;10.958;2023-12-07T16:33:16;26.63;;;10.80;;
56667;SDS011;42542;48.360;10.958;2023-12-07T16:36:18;27.55;;;10.68;;
56667;SDS011;42542;48.360;10.958;2023-12-07T16:39:24;35.08;;;14.23;;
56667;SDS011;42542;48.360;10.958;2023-12-07T16:42:26;33.00;;;12.95;;
56667;SDS011;42542;48.360;10.958;2023-12-07T16:45:28;33.90;;;15.40;;
56667;SDS011;42542;48.360;10.958;2023-12-07T16:48:35;27.95;;;13.32;;
56667;SDS011;42542;48.360;10.958;2023-12-07T16:51:37;27.07;;;11.83;;
56667;SDS011;42542;48.360;10.958;2023-12-07T16:54:40;27.48;;;11.32;;
56667;SDS011;42542;48.360;10.958;2023-12-07T16:57:42;27.02;;;11.43;;
56667;SDS011;42542;48.360;10.958;2023-12-07T17:00:44;26.90;;;10.17;;
56667;SDS011;42542;48.360;10.958;2023-12-07T17:03:46;17.33;;;6.70;;
56667;SDS011;42542;48.360;10.958;2023-12-07T17:06:48;18.17;;;7.03;;
56667;SDS011;42542;48.360;10.958;2023-12-07T17:09:58;25.00;;;8.45;;
56667;SDS011;42542;48.360;10.958;2023-12-07T17:13:01;22.65;;;8.65;;
56667;SDS011;42542;48.360;10.958;2023-12-07T17:16:04;28.15;;;10.27;;
56667;SDS011;42542;48.360;10.958;2023-12-07T17:19:09;21.40;;;7.93;;
56667;SDS011;42542;48.360;10.958;2023-12-07T17:22:11;25.60;;;7.90;;
56667;SDS011;42542;48.360;10.958;2023-12-07T17:25:13;21.73;;;8.43;;
56667;SDS011;42542;48.360;10.958;2023-12-07T17:28:16;25.25;;;8.93;;
56667;SDS011;42542;48.360;10.958;2023-12-07T17:31:18;17.30;;;6.33;;
56667;SDS011;42542;48.360;10.958;2023-12-07T17:34:21;16.70;;;6.22;;
56667;SDS011;42542;48.360;10.958;2023-12-07T17:37:23;18.48;;;6.10;;
56667;SDS011;42542;48.360;10.958;2023-12-07T17:40:25;17.42;;;6.07;;
56667;SDS011;42542;48.360;10.958;2023-12-07T17:43:26;15.00;;;5.57;;
56667;SDS011;42542;48.360;10.958;2023-12-07T17:46:28;17.98;;;6.00;;
56667;SDS011;42542;48.360;10.958;2023-12-07T17:49:29;13.23;;;5.47;;
56667;SDS011;42542;48.360;10.958;2023-12-07T17:52:32;17.17;;;6.47;;
56667;SDS011;42542;48.360;10.958;2023-12-07T17:55:34;15.82;;;6.03;;
56667;SDS011;42542;48.360;10.958;2023-12-07T17:58:36;17.67;;;5.35;;